createdAt,value
2018-02-05T00:00:54.199Z,15.20
2018-02-05T00:01:54.214Z,14.70
2018-02-05T00:02:54.256Z,14.90
2018-02-05T00:03:54.270Z,14.40
2018-02-05T00:04:54.293Z,15.00
2018-02-05T00:05:54.323Z,15.00
2018-02-05T00:06:54.403Z,14.80
2018-02-05T00:07:54.375Z,14.50
2018-02-05T00:08:54.415Z,14.80
2018-02-05T00:09:54.432Z,14.90
2018-02-05T00:10:54.456Z,15.40
2018-02-05T00:11:54.482Z,15.40
2018-02-05T00:12:54.511Z,15.00
2018-02-05T00:13:54.739Z,15.10
2018-02-05T00:14:54.564Z,15.30
2018-02-05T00:15:54.592Z,15.60
2018-02-05T00:16:54.617Z,15.40
2018-02-05T00:17:54.645Z,15.90
2018-02-05T00:18:54.673Z,15.90
2018-02-05T00:19:54.702Z,17.20
2018-02-05T00:20:54.728Z,15.80
2018-02-05T00:21:54.755Z,15.00
2018-02-05T00:22:54.782Z,15.70
2018-02-05T00:23:54.808Z,15.10
2018-02-05T00:24:54.833Z,16.30
2018-02-05T00:25:54.862Z,16.00
2018-02-05T00:26:54.895Z,16.20
2018-02-05T00:27:54.914Z,15.30
2018-02-05T00:28:54.944Z,15.80
2018-02-05T00:29:54.969Z,15.40
2018-02-05T00:30:55.100Z,15.40
2018-02-05T00:31:55.025Z,15.70
2018-02-05T00:32:55.054Z,15.80
2018-02-05T00:33:55.079Z,16.10
2018-02-05T00:34:55.105Z,15.60
2018-02-05T00:35:55.134Z,15.80
2018-02-05T00:36:55.161Z,15.50
2018-02-05T00:37:55.193Z,16.10
2018-02-05T00:38:55.213Z,16.80
2018-02-05T00:39:55.239Z,15.90
2018-02-05T00:40:55.278Z,15.90
2018-02-05T00:41:55.296Z,15.70
2018-02-05T00:42:55.406Z,16.20
2018-02-05T00:43:55.356Z,16.60
2018-02-05T00:44:55.376Z,15.90
2018-02-05T00:45:55.403Z,16.10
2018-02-05T00:46:55.429Z,16.50
2018-02-05T00:47:55.457Z,16.70
2018-02-05T00:48:55.486Z,16.40
2018-02-05T00:49:55.537Z,17.20
2018-02-05T00:50:55.537Z,17.50
2018-02-05T00:51:55.588Z,17.00
2018-02-05T00:52:55.648Z,16.80
2018-02-05T00:53:55.628Z,16.20
2018-02-05T00:54:55.646Z,16.30
2018-02-05T00:55:55.688Z,16.50
2018-02-05T00:56:55.700Z,16.50
2018-02-05T00:57:55.727Z,15.80
2018-02-05T00:58:55.752Z,16.00
2018-02-05T00:59:55.847Z,15.80
2018-02-05T01:00:55.822Z,16.00
2018-02-05T01:01:55.840Z,15.90
2018-02-05T01:02:55.859Z,17.20
2018-02-05T01:03:55.889Z,16.50
2018-02-05T01:04:55.918Z,15.80
2018-02-05T01:05:55.943Z,16.30
2018-02-05T01:06:55.968Z,16.50
2018-02-05T01:07:55.998Z,17.00
2018-02-05T01:08:56.024Z,16.80
2018-02-05T01:09:56.048Z,16.60
2018-02-05T01:10:56.078Z,16.40
2018-02-05T01:11:56.104Z,17.10
2018-02-05T01:12:56.131Z,17.30
2018-02-05T01:13:56.173Z,16.70
2018-02-05T01:14:56.184Z,16.50
2018-02-05T01:15:56.212Z,16.30
2018-02-05T01:16:56.252Z,16.40
2018-02-05T01:17:56.279Z,16.70
2018-02-05T01:18:56.292Z,16.50
2018-02-05T01:19:56.332Z,17.70
2018-02-05T01:20:56.353Z,17.40
2018-02-05T01:21:56.381Z,16.50
2018-02-05T01:22:56.400Z,16.30
2018-02-05T01:23:56.445Z,15.80
2018-02-05T01:24:56.454Z,17.30
2018-02-05T01:25:56.483Z,17.30
2018-02-05T01:26:56.567Z,16.50
2018-02-05T01:27:56.535Z,16.50
2018-02-05T01:28:56.566Z,16.80
2018-02-05T01:29:56.591Z,17.00
2018-02-05T01:30:56.625Z,16.60
2018-02-05T01:31:56.643Z,16.70
2018-02-05T01:32:56.672Z,17.00
2018-02-05T01:33:56.698Z,16.90
2018-02-05T01:34:57.037Z,16.20
2018-02-05T01:35:56.752Z,16.60
2018-02-05T01:36:56.777Z,17.20
2018-02-05T01:37:56.824Z,16.60
2018-02-05T01:38:56.833Z,17.60
2018-02-05T01:39:56.857Z,16.60
2018-02-05T01:40:56.893Z,17.00
2018-02-05T01:41:56.914Z,16.30
2018-02-05T01:42:56.955Z,16.60
2018-02-05T01:43:56.968Z,17.70
2018-02-05T01:44:56.993Z,16.60
2018-02-05T01:45:57.128Z,16.60
2018-02-05T01:46:57.046Z,17.10
2018-02-05T01:47:57.075Z,16.80
2018-02-05T01:48:57.106Z,17.40
2018-02-05T01:49:57.134Z,16.60
2018-02-05T01:50:57.156Z,17.20
2018-02-05T01:51:57.183Z,17.50
2018-02-05T01:52:57.208Z,17.30
2018-02-05T01:53:57.236Z,16.60
2018-02-05T01:54:57.277Z,17.00
2018-02-05T01:55:57.289Z,17.30
2018-02-05T01:56:57.318Z,17.00
2018-02-05T01:57:57.356Z,17.40
2018-02-05T01:58:57.374Z,17.80
2018-02-05T01:59:57.397Z,17.20
2018-02-05T02:00:57.426Z,17.00
2018-02-05T02:01:57.455Z,17.20
2018-02-05T02:02:57.480Z,16.90
2018-02-05T02:03:57.504Z,17.20
2018-02-05T02:04:57.536Z,17.20
2018-02-05T02:05:57.565Z,17.60
2018-02-05T02:06:57.585Z,17.80
2018-02-05T02:08:57.645Z,16.90
2018-02-05T02:09:57.724Z,17.50
2018-02-05T02:10:57.696Z,17.20
2018-02-05T02:11:57.721Z,16.90
2018-02-05T02:12:57.750Z,17.00
2018-02-05T02:13:57.779Z,17.30
2018-02-05T02:14:57.807Z,17.30
2018-02-05T02:15:57.828Z,17.10
2018-02-05T02:16:57.858Z,17.00
2018-02-05T02:17:57.881Z,17.70
2018-02-05T02:18:57.909Z,16.90
2018-02-05T02:19:57.939Z,17.00
2018-02-05T02:20:57.962Z,17.60
2018-02-05T02:21:57.990Z,17.30
2018-02-05T02:22:58.018Z,17.30
2018-02-05T02:23:58.044Z,17.70
2018-02-05T02:24:58.070Z,16.40
2018-02-05T02:25:58.137Z,16.90
2018-02-05T02:26:58.182Z,17.20
2018-02-05T02:27:58.150Z,17.10
2018-02-05T02:28:58.178Z,17.70
2018-02-05T02:29:58.203Z,17.00
2018-02-05T02:30:58.232Z,17.20
2018-02-05T02:31:58.266Z,18.00
2018-02-05T02:32:58.283Z,18.00
2018-02-05T02:33:58.311Z,18.10
2018-02-05T02:34:58.338Z,17.90
2018-02-05T02:35:58.364Z,17.80
2018-02-05T02:36:58.393Z,18.10
2018-02-05T02:37:58.421Z,17.80
2018-02-05T02:38:58.512Z,18.40
2018-02-05T02:39:58.480Z,17.60
2018-02-05T02:40:58.512Z,17.60
2018-02-05T02:41:58.524Z,18.00
2018-02-05T02:42:58.552Z,18.50
2018-02-05T02:43:58.579Z,17.80
2018-02-05T02:44:58.611Z,17.20
2018-02-05T02:45:58.635Z,16.60
2018-02-05T02:46:58.661Z,16.40
2018-02-05T02:47:58.685Z,17.20
2018-02-05T02:48:58.713Z,16.80
2018-02-05T02:49:58.742Z,16.40
2018-02-05T02:50:58.766Z,16.50
2018-02-05T02:51:58.796Z,16.80
2018-02-05T02:52:58.821Z,17.30
2018-02-05T02:53:58.851Z,16.60
2018-02-05T02:54:58.878Z,18.00
2018-02-05T02:55:58.947Z,17.00
2018-02-05T02:56:58.931Z,17.60
2018-02-05T02:57:58.957Z,17.50
2018-02-05T02:58:58.984Z,18.00
2018-02-05T02:59:59.066Z,17.70
2018-02-05T03:00:59.038Z,18.40
2018-02-05T03:01:59.063Z,17.40
2018-02-05T03:02:59.093Z,17.80
2018-02-05T03:03:59.119Z,17.70
2018-02-05T03:04:59.143Z,17.80
2018-02-05T03:05:59.172Z,18.20
2018-02-05T03:06:59.198Z,18.80
2018-02-05T03:07:59.222Z,21.40
2018-02-05T03:08:59.268Z,21.90
2018-02-05T03:09:59.278Z,20.10
2018-02-05T03:10:59.306Z,19.30
2018-02-05T03:11:59.332Z,19.70
2018-02-05T03:12:59.363Z,17.90
2018-02-05T03:13:59.382Z,18.10
2018-02-05T03:14:59.425Z,17.50
2018-02-05T03:15:59.438Z,17.60
2018-02-05T03:16:59.465Z,17.40
2018-02-05T03:17:59.493Z,18.30
2018-02-05T03:18:59.516Z,19.00
2018-02-05T03:19:59.601Z,19.70
2018-02-05T03:20:59.575Z,20.80
2018-02-05T03:21:59.600Z,20.10
2018-02-05T03:22:59.624Z,19.40
2018-02-05T03:23:59.654Z,19.00
2018-02-05T03:24:59.686Z,21.10
2018-02-05T03:25:59.719Z,18.00
2018-02-05T03:26:59.730Z,19.70
2018-02-05T03:27:59.758Z,20.10
2018-02-05T03:28:59.798Z,17.60
2018-02-05T03:29:59.815Z,18.60
2018-02-05T03:30:59.838Z,19.40
2018-02-05T03:31:59.968Z,18.50
2018-02-05T03:32:59.895Z,17.50
2018-02-05T03:33:59.921Z,18.70
2018-02-05T03:34:59.946Z,18.60
2018-02-05T03:35:59.976Z,18.30
2018-02-05T03:37:00.002Z,17.70
2018-02-05T03:38:00.031Z,17.60
2018-02-05T03:39:00.057Z,19.00
2018-02-05T03:40:00.089Z,22.40
2018-02-05T03:41:00.121Z,18.60
2018-02-05T03:42:00.170Z,18.10
2018-02-05T03:43:00.160Z,21.30
2018-02-05T03:45:00.218Z,18.70
2018-02-05T03:46:00.245Z,18.60
2018-02-05T03:47:00.282Z,17.20
2018-02-05T03:48:00.294Z,16.90
2018-02-05T03:49:00.467Z,18.10
2018-02-05T03:50:00.349Z,22.30
2018-02-05T03:51:00.379Z,19.90
2018-02-05T03:52:00.403Z,17.60
2018-02-05T03:53:00.429Z,16.70
2018-02-05T03:54:00.459Z,17.00
2018-02-05T03:55:00.480Z,17.50
2018-02-05T03:56:00.508Z,17.30
2018-02-05T03:57:00.538Z,16.40
2018-02-05T03:58:00.561Z,17.80
2018-02-05T03:59:00.588Z,16.40
2018-02-05T04:00:00.619Z,16.30
2018-02-05T04:01:00.644Z,15.90
2018-02-05T04:02:00.670Z,17.00
2018-02-05T04:03:00.693Z,16.20
2018-02-05T04:04:00.723Z,15.70
2018-02-05T04:05:00.750Z,16.20
2018-02-05T04:06:01.177Z,16.90
2018-02-05T04:07:01.118Z,16.40
2018-02-05T04:08:00.830Z,16.10
2018-02-05T04:09:00.856Z,16.50
2018-02-05T04:10:00.884Z,16.20
2018-02-05T04:11:00.910Z,16.70
2018-02-05T04:12:00.940Z,16.70
2018-02-05T04:13:00.964Z,15.90
2018-02-05T04:14:00.991Z,16.10
2018-02-05T04:15:01.021Z,16.20
2018-02-05T04:16:01.044Z,15.80
2018-02-05T04:17:01.071Z,17.00
2018-02-05T04:18:01.198Z,15.90
2018-02-05T04:19:01.124Z,15.80
2018-02-05T04:20:01.151Z,17.40
2018-02-05T04:21:01.183Z,15.80
2018-02-05T04:22:01.205Z,17.20
2018-02-05T04:23:01.234Z,16.50
2018-02-05T04:24:01.272Z,16.80
2018-02-05T04:25:01.285Z,16.20
2018-02-05T04:26:01.329Z,16.60
2018-02-05T04:27:01.339Z,16.80
2018-02-05T04:28:01.369Z,17.20
2018-02-05T04:29:01.393Z,16.60
2018-02-05T04:30:01.433Z,16.70
2018-02-05T04:31:01.448Z,17.10
2018-02-05T04:32:01.474Z,16.50
2018-02-05T04:33:01.512Z,17.40
2018-02-05T04:34:01.531Z,17.20
2018-02-05T04:35:01.583Z,16.50
2018-02-05T04:36:01.580Z,16.30
2018-02-05T04:37:01.663Z,16.60
2018-02-05T04:38:01.633Z,16.50
2018-02-05T04:39:01.659Z,16.70
2018-02-05T04:40:01.686Z,16.50
2018-02-05T04:41:01.719Z,16.60
2018-02-05T04:42:01.744Z,16.80
2018-02-05T04:43:01.767Z,15.70
2018-02-05T04:44:01.794Z,17.60
2018-02-05T04:45:01.826Z,16.50
2018-02-05T04:46:01.850Z,16.60
2018-02-05T04:47:01.878Z,16.40
2018-02-05T04:48:01.957Z,17.40
2018-02-05T04:49:01.930Z,16.20
2018-02-05T04:50:01.958Z,17.20
2018-02-05T04:51:02.000Z,16.60
2018-02-05T04:52:02.035Z,16.70
2018-02-05T04:53:02.038Z,16.80
2018-02-05T04:54:02.066Z,16.90
2018-02-05T04:55:02.090Z,18.00
2018-02-05T04:56:02.119Z,17.30
2018-02-05T04:57:02.149Z,17.10
2018-02-05T04:58:02.190Z,17.40
2018-02-05T04:59:02.198Z,17.30
2018-02-05T05:00:02.226Z,17.60
2018-02-05T05:01:02.276Z,17.80
2018-02-05T05:02:02.288Z,18.00
2018-02-05T05:03:02.322Z,18.00
2018-02-05T05:04:02.337Z,17.10
2018-02-05T05:05:02.363Z,18.50
2018-02-05T05:06:02.390Z,18.80
2018-02-05T05:07:02.432Z,17.20
2018-02-05T05:08:02.461Z,18.00
2018-02-05T05:09:02.470Z,18.00
2018-02-05T05:10:02.497Z,18.30
2018-02-05T05:11:02.529Z,18.40
2018-02-05T05:12:02.551Z,17.50
2018-02-05T05:13:02.582Z,18.30
2018-02-05T05:14:02.609Z,18.40
2018-02-05T05:15:02.646Z,18.90
2018-02-05T05:16:02.660Z,18.40
2018-02-05T05:17:02.689Z,17.30
2018-02-05T05:18:02.715Z,18.60
2018-02-05T05:19:02.749Z,18.20
2018-02-05T05:20:02.772Z,19.10
2018-02-05T05:21:02.859Z,20.00
2018-02-05T05:22:02.825Z,19.90
2018-02-05T05:23:02.850Z,20.40
2018-02-05T05:24:02.881Z,20.90
2018-02-05T05:25:02.906Z,22.80
2018-02-05T05:26:02.933Z,20.50
2018-02-05T05:27:02.959Z,22.50
2018-02-05T05:28:03.044Z,21.30
2018-02-05T05:29:03.011Z,20.30
2018-02-05T05:30:03.040Z,20.40
2018-02-05T05:31:03.070Z,21.40
2018-02-05T05:32:03.093Z,22.30
2018-02-05T05:33:03.120Z,20.90
2018-02-05T05:34:03.162Z,19.90
2018-02-05T05:35:03.175Z,21.80
2018-02-05T05:36:03.213Z,20.50
2018-02-05T05:37:03.231Z,20.90
2018-02-05T05:38:03.314Z,20.40
2018-02-05T05:39:03.284Z,20.20
2018-02-05T05:40:03.513Z,20.60
2018-02-05T05:41:03.342Z,20.00
2018-02-05T05:42:03.363Z,18.90
2018-02-05T05:43:03.390Z,19.40
2018-02-05T05:44:03.421Z,20.30
2018-02-05T05:45:03.517Z,20.80
2018-02-05T05:46:03.476Z,20.80
2018-02-05T05:47:03.502Z,20.20
2018-02-05T05:48:03.526Z,19.60
2018-02-05T05:49:03.555Z,20.30
2018-02-05T05:50:03.584Z,20.60
2018-02-05T05:51:03.607Z,19.80
2018-02-05T05:52:03.636Z,22.80
2018-02-05T05:53:03.666Z,25.80
2018-02-05T05:54:03.693Z,25.90
2018-02-05T05:55:03.812Z,28.00
2018-02-05T05:56:03.747Z,23.30
2018-02-05T05:57:03.774Z,22.10
2018-02-05T05:58:03.814Z,22.60
2018-02-05T05:59:03.827Z,20.10
2018-02-05T06:00:03.862Z,20.20
2018-02-05T06:01:03.889Z,20.00
2018-02-05T06:02:03.910Z,20.30
2018-02-05T06:03:03.936Z,19.90
2018-02-05T06:04:03.964Z,19.00
2018-02-05T06:05:03.999Z,19.40
2018-02-05T06:06:04.019Z,19.70
2018-02-05T06:07:04.048Z,19.50
2018-02-05T06:08:04.075Z,19.40
2018-02-05T06:09:04.105Z,19.10
2018-02-05T06:10:04.139Z,18.90
2018-02-05T06:11:04.169Z,19.10
2018-02-05T06:12:04.184Z,18.80
2018-02-05T06:13:04.260Z,19.10
2018-02-05T06:14:04.364Z,19.70
2018-02-05T06:15:04.264Z,19.30
2018-02-05T06:16:04.290Z,19.80
2018-02-05T06:17:04.318Z,20.00
2018-02-05T06:18:04.346Z,18.60
2018-02-05T06:19:04.375Z,19.60
2018-02-05T06:20:04.415Z,20.50
2018-02-05T06:21:04.429Z,19.40
2018-02-05T06:22:04.456Z,18.50
2018-02-05T06:23:04.482Z,19.70
2018-02-05T06:24:04.510Z,18.80
2018-02-05T06:25:04.537Z,18.60
2018-02-05T06:26:04.567Z,21.10
2018-02-05T06:27:04.592Z,21.30
2018-02-05T06:28:04.619Z,20.70
2018-02-05T06:29:04.649Z,19.50
2018-02-05T06:30:04.677Z,20.40
2018-02-05T06:31:04.797Z,18.30
2018-02-05T06:32:04.731Z,19.20
2018-02-05T06:33:04.814Z,21.40
2018-02-05T06:34:04.810Z,19.30
2018-02-05T06:35:04.809Z,19.50
2018-02-05T06:36:04.860Z,18.60
2018-02-05T06:37:04.868Z,18.70
2018-02-05T06:38:04.898Z,19.30
2018-02-05T06:39:04.921Z,18.70
2018-02-05T06:40:04.948Z,17.80
2018-02-05T06:41:04.977Z,18.00
2018-02-05T06:42:05.009Z,18.20
2018-02-05T06:43:05.032Z,18.50
2018-02-05T06:44:05.072Z,18.80
2018-02-05T06:45:05.089Z,18.90
2018-02-05T06:46:05.129Z,18.30
2018-02-05T06:47:05.153Z,18.20
2018-02-05T06:48:05.536Z,19.40
2018-02-05T06:49:05.200Z,18.60
2018-02-05T06:50:05.229Z,17.30
2018-02-05T06:51:05.253Z,17.90
2018-02-05T06:53:05.310Z,17.60
2018-02-05T06:54:05.335Z,17.90
2018-02-05T06:55:05.362Z,16.20
2018-02-05T06:56:05.593Z,17.40
2018-02-05T06:57:05.420Z,15.60
2018-02-05T06:59:05.472Z,15.70
2018-02-05T07:00:05.559Z,15.90
2018-02-05T07:01:05.525Z,15.60
2018-02-05T07:02:05.561Z,16.90
2018-02-05T07:03:05.583Z,17.10
2018-02-05T07:04:05.612Z,16.10
2018-02-05T07:05:05.641Z,16.80
2018-02-05T07:06:05.663Z,16.20
2018-02-05T07:07:05.693Z,16.20
2018-02-05T07:08:05.724Z,16.90
2018-02-05T07:09:05.746Z,16.10
2018-02-05T07:10:05.834Z,17.40
2018-02-05T07:11:05.802Z,17.20
2018-02-05T07:12:05.832Z,17.10
2018-02-05T07:13:05.857Z,16.10
2018-02-05T07:14:05.885Z,16.90
2018-02-05T07:15:05.974Z,16.90
2018-02-05T07:16:05.942Z,17.40
2018-02-05T07:17:06.073Z,17.20
2018-02-05T07:18:05.995Z,16.90
2018-02-05T07:19:06.037Z,16.90
2018-02-05T07:20:06.055Z,16.30
2018-02-05T07:21:06.086Z,16.40
2018-02-05T07:22:06.107Z,15.30
2018-02-05T07:23:06.148Z,16.50
2018-02-05T07:24:06.498Z,15.60
2018-02-05T07:25:06.189Z,14.70
2018-02-05T07:26:06.216Z,16.10
2018-02-05T07:27:06.243Z,16.10
2018-02-05T07:28:06.272Z,14.60
2018-02-05T07:29:06.301Z,15.50
2018-02-05T07:30:06.343Z,16.70
2018-02-05T07:31:06.354Z,16.50
2018-02-05T07:32:06.384Z,15.70
2018-02-05T07:33:06.410Z,17.80
2018-02-05T07:34:06.460Z,17.20
2018-02-05T07:35:06.465Z,15.60
2018-02-05T07:36:06.505Z,15.40
2018-02-05T07:37:06.530Z,16.00
2018-02-05T07:38:06.547Z,16.20
2018-02-05T07:39:06.576Z,16.60
2018-02-05T07:40:06.606Z,16.70
2018-02-05T07:41:07.048Z,16.90
2018-02-05T07:42:06.671Z,17.10
2018-02-05T07:43:06.686Z,17.30
2018-02-05T07:44:06.715Z,17.10
2018-02-05T07:45:06.741Z,18.00
2018-02-05T07:46:06.768Z,16.70
2018-02-05T07:47:06.810Z,16.60
2018-02-05T07:48:06.826Z,16.10
2018-02-05T07:49:06.849Z,16.10
2018-02-05T07:50:06.879Z,15.30
2018-02-05T07:51:06.907Z,16.30
2018-02-05T07:52:06.940Z,16.10
2018-02-05T07:53:07.026Z,16.50
2018-02-05T07:54:06.989Z,16.30
2018-02-05T07:55:07.077Z,15.10
2018-02-05T07:57:07.073Z,16.40
2018-02-05T07:58:07.099Z,15.90
2018-02-05T07:59:07.128Z,16.60
2018-02-05T08:00:07.157Z,15.50
2018-02-05T08:01:07.180Z,15.60
2018-02-05T08:02:07.224Z,16.10
2018-02-05T08:03:07.294Z,17.00
2018-02-05T08:04:07.263Z,17.10
2018-02-05T08:05:07.296Z,17.00
2018-02-05T08:06:07.322Z,16.50
2018-02-05T08:07:07.361Z,15.60
2018-02-05T08:08:07.374Z,16.80
2018-02-05T08:09:07.407Z,14.90
2018-02-05T08:10:07.521Z,13.70
2018-02-05T08:11:07.460Z,13.70
2018-02-05T08:12:07.490Z,13.90
2018-02-05T08:13:07.521Z,14.00
2018-02-05T08:14:07.543Z,14.60
2018-02-05T08:15:07.570Z,13.90
2018-02-05T08:16:07.595Z,12.80
2018-02-05T08:17:07.645Z,13.60
2018-02-05T08:18:07.653Z,14.60
2018-02-05T08:20:07.760Z,14.60
2018-02-05T08:21:07.736Z,13.50
2018-02-05T08:22:07.966Z,14.50
2018-02-05T08:23:07.792Z,14.10
2018-02-05T08:24:07.816Z,13.70
2018-02-05T08:25:07.860Z,13.80
2018-02-05T08:26:07.873Z,14.70
2018-02-05T08:27:08.226Z,14.70
2018-02-05T08:28:07.926Z,14.40
2018-02-05T08:29:07.954Z,13.20
2018-02-05T08:30:07.984Z,13.70
2018-02-05T08:31:08.012Z,14.20
2018-02-05T08:32:08.042Z,13.30
2018-02-05T08:33:08.064Z,14.00
2018-02-05T08:34:08.099Z,14.40
2018-02-05T08:35:08.124Z,13.30
2018-02-05T08:36:08.152Z,14.10
2018-02-05T08:37:08.177Z,14.50
2018-02-05T08:38:08.214Z,15.30
2018-02-05T08:39:08.568Z,15.20
2018-02-05T08:40:08.262Z,13.30
2018-02-05T08:41:08.303Z,14.10
2018-02-05T08:42:08.315Z,13.80
2018-02-05T08:43:08.343Z,14.60
2018-02-05T08:44:08.374Z,14.90
2018-02-05T08:45:08.398Z,15.70
2018-02-05T08:46:08.564Z,16.00
2018-02-05T08:47:08.454Z,15.20
2018-02-05T08:48:08.485Z,15.80
2018-02-05T08:49:08.514Z,15.50
2018-02-05T08:50:08.550Z,16.20
2018-02-05T08:51:08.566Z,13.00
2018-02-05T08:52:08.598Z,12.90
2018-02-05T08:53:08.680Z,13.30
2018-02-05T08:54:08.651Z,14.00
2018-02-05T08:55:08.677Z,13.90
2018-02-05T08:56:08.717Z,14.20
2018-02-05T08:57:08.745Z,14.50
2018-02-05T08:58:08.766Z,14.70
2018-02-05T08:59:09.043Z,14.20
2018-02-05T09:00:08.822Z,14.50
2018-02-05T09:01:08.859Z,15.90
2018-02-05T09:02:08.896Z,14.80
2018-02-05T09:03:08.941Z,15.30
2018-02-05T09:04:08.935Z,14.60
2018-02-05T09:05:08.976Z,15.40
2018-02-05T09:06:08.991Z,15.50
2018-02-05T09:07:09.018Z,14.40
2018-02-05T09:08:09.049Z,13.70
2018-02-05T09:09:09.076Z,14.70
2018-02-05T09:10:09.104Z,13.50
2018-02-05T09:11:09.164Z,14.20
2018-02-05T09:12:09.160Z,13.80
2018-02-05T09:13:09.192Z,14.30
2018-02-05T09:14:09.226Z,14.20
2018-02-05T09:15:09.247Z,13.90
2018-02-05T09:16:09.279Z,13.80
2018-02-05T09:17:09.302Z,14.50
2018-02-05T09:18:09.332Z,13.90
2018-02-05T09:19:09.374Z,13.50
2018-02-05T09:20:09.433Z,14.60
2018-02-05T09:21:09.418Z,14.20
2018-02-05T09:22:09.449Z,14.40
2018-02-05T09:23:09.477Z,15.20
2018-02-05T09:24:09.509Z,15.10
2018-02-05T09:25:09.548Z,16.50
2018-02-05T09:26:09.561Z,15.30
2018-02-05T09:27:09.589Z,13.70
2018-02-05T09:28:09.621Z,14.10
2018-02-05T09:29:09.650Z,13.80
2018-02-05T09:30:09.679Z,14.90
2018-02-05T09:31:09.710Z,15.60
2018-02-05T09:32:09.740Z,14.40
2018-02-05T09:33:09.770Z,14.60
2018-02-05T09:34:09.797Z,14.00
2018-02-05T09:35:09.823Z,14.80
2018-02-05T09:36:09.850Z,14.90
2018-02-05T09:37:09.880Z,14.50
2018-02-05T09:38:09.910Z,15.10
2018-02-05T09:39:09.943Z,14.90
2018-02-05T09:40:09.966Z,14.30
2018-02-05T09:41:10.004Z,15.10
2018-02-05T09:42:10.031Z,14.50
2018-02-05T09:43:10.063Z,15.50
2018-02-05T09:44:10.082Z,13.70
2018-02-05T09:45:10.111Z,14.20
2018-02-05T09:46:10.144Z,14.60
2018-02-05T09:47:10.170Z,14.30
2018-02-05T09:48:10.202Z,13.80
2018-02-05T09:49:10.231Z,13.20
2018-02-05T09:50:10.258Z,12.70
2018-02-05T09:51:10.292Z,12.40
2018-02-05T09:52:10.318Z,13.30
2018-02-05T09:53:10.344Z,13.90
2018-02-05T09:54:10.384Z,14.90
2018-02-05T09:55:10.402Z,13.60
2018-02-05T09:56:10.457Z,13.30
2018-02-05T09:57:10.461Z,12.70
2018-02-05T09:58:10.493Z,12.70
2018-02-05T09:59:10.517Z,12.70
2018-02-05T10:00:10.549Z,13.40
2018-02-05T10:01:10.578Z,13.20
2018-02-05T10:02:10.608Z,12.60
2018-02-05T10:03:10.635Z,12.20
2018-02-05T10:04:10.666Z,13.20
2018-02-05T10:05:10.693Z,13.20
2018-02-05T10:06:10.728Z,12.60
2018-02-05T10:07:10.754Z,13.20
2018-02-05T10:08:10.845Z,13.70
2018-02-05T10:09:10.809Z,13.60
2018-02-05T10:10:10.843Z,13.10
2018-02-05T10:11:10.869Z,13.90
2018-02-05T10:12:10.898Z,13.60
2018-02-05T10:13:11.004Z,13.50
2018-02-05T10:14:10.958Z,12.50
2018-02-05T10:15:10.988Z,11.80
2018-02-05T10:16:11.015Z,12.50
2018-02-05T10:17:11.047Z,13.30
2018-02-05T10:18:11.079Z,13.50
2018-02-05T10:19:11.107Z,12.80
2018-02-05T10:20:11.202Z,13.00
2018-02-05T10:21:11.160Z,12.50
2018-02-05T10:22:11.201Z,11.70
2018-02-05T10:23:11.219Z,12.50
2018-02-05T10:24:11.253Z,13.10
2018-02-05T10:25:11.278Z,11.80
2018-02-05T10:26:11.306Z,12.30
2018-02-05T10:27:11.336Z,10.70
2018-02-05T10:28:11.370Z,12.40
2018-02-05T10:29:11.398Z,12.80
2018-02-05T10:30:11.438Z,11.90
2018-02-05T10:31:11.458Z,11.70
2018-02-05T10:32:11.560Z,12.30
2018-02-05T10:33:11.515Z,12.20
2018-02-05T10:34:11.537Z,12.60
2018-02-05T10:35:11.566Z,13.10
2018-02-05T10:36:11.600Z,12.70
2018-02-05T10:37:11.628Z,12.80
2018-02-05T10:38:11.658Z,12.90
2018-02-05T10:39:11.688Z,13.80
2018-02-05T10:40:11.719Z,12.70
2018-02-05T10:41:11.747Z,13.50
2018-02-05T10:42:11.774Z,14.60
2018-02-05T10:43:11.801Z,14.30
2018-02-05T10:44:11.832Z,13.00
2018-02-05T10:45:11.858Z,14.70
2018-02-05T10:46:11.893Z,13.30
2018-02-05T10:47:11.921Z,14.30
2018-02-05T10:48:11.950Z,12.40
2018-02-05T10:49:12.181Z,13.10
2018-02-05T10:50:12.010Z,12.30
2018-02-05T10:51:12.039Z,12.60
2018-02-05T10:52:12.065Z,12.90
2018-02-05T10:53:12.106Z,11.30
2018-02-05T10:54:12.132Z,12.70
2018-02-05T10:55:12.205Z,13.20
2018-02-05T10:56:12.209Z,12.90
2018-02-05T10:57:12.218Z,13.10
2018-02-05T10:58:12.251Z,12.40
2018-02-05T10:59:12.474Z,13.00
2018-02-05T11:00:12.304Z,12.10
2018-02-05T11:01:12.334Z,13.20
2018-02-05T11:02:12.362Z,13.00
2018-02-05T11:03:12.708Z,12.60
2018-02-05T11:04:12.427Z,13.50
2018-02-05T11:05:12.451Z,13.80
2018-02-05T11:06:12.480Z,12.80
2018-02-05T11:07:12.524Z,12.70
2018-02-05T11:08:12.535Z,12.50
2018-02-05T11:09:12.571Z,12.10
2018-02-05T11:11:12.637Z,12.30
2018-02-05T11:12:12.658Z,12.90
2018-02-05T11:13:12.684Z,11.70
2018-02-05T11:14:12.715Z,12.60
2018-02-05T11:15:12.742Z,14.00
2018-02-05T11:16:12.773Z,13.20
2018-02-05T11:17:12.810Z,14.00
2018-02-05T11:18:12.832Z,12.50
2018-02-05T11:19:12.862Z,13.20
2018-02-05T11:20:12.896Z,13.90
2018-02-05T11:21:12.917Z,13.50
2018-02-05T11:22:12.953Z,13.60
2018-02-05T11:23:12.981Z,12.40
2018-02-05T11:24:13.011Z,12.80
2018-02-05T11:25:13.034Z,13.50
2018-02-05T11:26:13.066Z,12.80
2018-02-05T11:27:13.095Z,14.20
2018-02-05T11:28:13.124Z,13.90
2018-02-05T11:29:13.214Z,14.00
2018-02-05T11:30:13.184Z,13.50
2018-02-05T11:31:13.215Z,13.50
2018-02-05T11:32:13.243Z,13.70
2018-02-05T11:33:13.270Z,13.80
2018-02-05T11:34:13.306Z,13.40
2018-02-05T11:35:13.327Z,13.40
2018-02-05T11:36:13.409Z,13.60
2018-02-05T11:37:13.392Z,14.00
2018-02-05T11:38:13.419Z,13.30
2018-02-05T11:39:13.503Z,13.60
2018-02-05T11:40:13.475Z,13.70
2018-02-05T11:41:13.508Z,14.20
2018-02-05T11:42:13.536Z,14.30
2018-02-05T11:43:13.566Z,14.40
2018-02-05T11:44:13.592Z,14.80
2018-02-05T11:45:13.622Z,13.80
2018-02-05T11:46:13.655Z,15.10
2018-02-05T11:47:13.682Z,13.60
2018-02-05T11:48:13.709Z,14.50
2018-02-05T11:49:13.742Z,14.80
2018-02-05T11:50:13.832Z,15.20
2018-02-05T11:51:13.807Z,15.90
2018-02-05T11:52:13.828Z,16.20
2018-02-05T11:53:13.859Z,17.10
2018-02-05T11:54:13.887Z,14.90
2018-02-05T11:55:13.917Z,12.60
2018-02-05T11:56:14.018Z,15.20
2018-02-05T11:57:13.999Z,13.30
2018-02-05T11:58:14.008Z,14.60
2018-02-05T11:59:14.033Z,14.30
2018-02-05T12:00:14.064Z,13.40
2018-02-05T12:01:14.093Z,14.40
2018-02-05T12:02:14.123Z,14.60
2018-02-05T12:03:14.151Z,14.10
2018-02-05T12:04:14.189Z,15.10
2018-02-05T12:05:14.210Z,15.20
2018-02-05T12:06:14.242Z,14.10
2018-02-05T12:07:14.272Z,15.00
2018-02-05T12:08:14.301Z,14.20
2018-02-05T12:09:14.342Z,13.80
2018-02-05T12:10:14.360Z,14.20
2018-02-05T12:11:14.390Z,13.70
2018-02-05T12:12:14.419Z,13.90
2018-02-05T12:13:14.490Z,14.20
2018-02-05T12:15:14.517Z,15.10
2018-02-05T12:16:14.540Z,14.20
2018-02-05T12:17:14.583Z,14.50
2018-02-05T12:18:14.602Z,14.80
2018-02-05T12:19:14.625Z,14.30
2018-02-05T12:20:14.658Z,15.40
2018-02-05T12:21:14.695Z,14.30
2018-02-05T12:22:14.717Z,15.00
2018-02-05T12:23:14.756Z,14.90
2018-02-05T12:24:14.776Z,14.70
2018-02-05T12:25:14.806Z,14.40
2018-02-05T12:26:14.833Z,13.90
2018-02-05T12:27:14.864Z,14.40
2018-02-05T12:28:14.894Z,14.00
2018-02-05T12:29:14.922Z,14.50
2018-02-05T12:30:14.951Z,16.30
2018-02-05T12:31:14.989Z,17.50
2018-02-05T12:32:15.108Z,17.70
2018-02-05T12:33:15.042Z,15.60
2018-02-05T12:34:15.072Z,13.60
2018-02-05T12:35:15.097Z,15.70
2018-02-05T12:36:15.127Z,14.10
2018-02-05T12:37:15.162Z,15.30
2018-02-05T12:38:15.185Z,16.20
2018-02-05T12:39:15.271Z,14.70
2018-02-05T12:40:15.242Z,13.90
2018-02-05T12:41:15.273Z,15.70
2018-02-05T12:42:15.308Z,14.40
2018-02-05T12:43:15.334Z,13.30
2018-02-05T12:44:15.363Z,11.30
2018-02-05T12:45:15.417Z,13.40
2018-02-05T12:46:15.419Z,13.10
2018-02-05T12:47:15.448Z,12.40
2018-02-05T12:48:15.475Z,13.60
2018-02-05T12:49:15.532Z,13.30
2018-02-05T12:50:15.536Z,13.50
2018-02-05T12:51:15.565Z,13.50
2018-02-05T12:52:15.595Z,13.50
2018-02-05T12:53:15.625Z,13.90
2018-02-05T12:55:15.684Z,13.20
2018-02-05T12:56:15.710Z,13.10
2018-02-05T12:57:15.746Z,11.90
2018-02-05T12:58:15.776Z,13.80
2018-02-05T12:59:15.797Z,13.90
2018-02-05T13:00:15.827Z,13.90
2018-02-05T13:01:15.858Z,14.50
2018-02-05T13:02:15.890Z,15.20